sensor_id;sensor_type;location;lat;lon;timestamp;P1;durP1;ratioP1;P2;durP2;ratioP2
57800;SDS011;43627;42.728;23.256;2023-10-13T00:00:30;29.20;;;14.18;;
57800;SDS011;43627;42.728;23.256;2023-10-13T00:03:03;20.20;;;12.18;;
57800;SDS011;43627;42.728;23.256;2023-10-13T00:05:32;19.38;;;10.82;;
57800;SDS011;43627;42.728;23.256;2023-10-13T00:08:01;20.77;;;11.95;;
57800;SDS011;43627;42.728;23.256;2023-10-13T00:10:32;16.90;;;12.98;;
57800;SDS011;43627;42.728;23.256;2023-10-13T00:13:00;27.48;;;14.85;;
57800;SDS011;43627;42.728;23.256;2023-10-13T00:15:43;22.17;;;14.50;;
57800;SDS011;43627;42.728;23.256;2023-10-13T00:18:35;20.88;;;15.85;;
57800;SDS011;43627;42.728;23.256;2023-10-13T00:21:08;20.08;;;17.73;;
57800;SDS011;43627;42.728;23.256;2023-10-13T00:23:46;20.90;;;12.40;;
57800;SDS011;43627;42.728;23.256;2023-10-13T00:26:20;18.10;;;12.30;;
57800;SDS011;43627;42.728;23.256;2023-10-13T00:28:54;24.95;;;14.27;;
57800;SDS011;43627;42.728;23.256;2023-10-13T00:31:37;19.30;;;12.85;;
57800;SDS011;43627;42.728;23.256;2023-10-13T00:34:10;20.20;;;12.98;;
57800;SDS011;43627;42.728;23.256;2023-10-13T00:36:41;16.93;;;12.03;;
57800;SDS011;43627;42.728;23.256;2023-10-13T00:39:29;25.88;;;12.38;;
57800;SDS011;43627;42.728;23.256;2023-10-13T00:41:56;17.85;;;13.13;;
57800;SDS011;43627;42.728;23.256;2023-10-13T00:44:25;20.92;;;13.88;;
57800;SDS011;43627;42.728;23.256;2023-10-13T00:47:04;24.15;;;12.35;;
57800;SDS011;43627;42.728;23.256;2023-10-13T00:49:38;22.27;;;13.90;;
57800;SDS011;43627;42.728;23.256;2023-10-13T00:52:06;15.45;;;12.00;;
57800;SDS011;43627;42.728;23.256;2023-10-13T00:54:39;19.30;;;11.93;;
57800;SDS011;43627;42.728;23.256;2023-10-13T00:57:06;19.80;;;12.23;;
57800;SDS011;43627;42.728;23.256;2023-10-13T00:59:53;26.10;;;13.52;;
57800;SDS011;43627;42.728;23.256;2023-10-13T01:02:21;16.02;;;10.93;;
57800;SDS011;43627;42.728;23.256;2023-10-13T01:05:07;16.77;;;12.23;;
57800;SDS011;43627;42.728;23.256;2023-10-13T01:07:46;17.63;;;12.35;;
57800;SDS011;43627;42.728;23.256;2023-10-13T01:10:19;17.10;;;12.48;;
57800;SDS011;43627;42.728;23.256;2023-10-13T01:12:52;19.83;;;12.38;;
57800;SDS011;43627;42.728;23.256;2023-10-13T01:15:20;15.68;;;11.00;;
57800;SDS011;43627;42.728;23.256;2023-10-13T01:17:48;21.98;;;12.02;;
57800;SDS011;43627;42.728;23.256;2023-10-13T01:20:16;17.70;;;11.30;;
57800;SDS011;43627;42.728;23.256;2023-10-13T01:23:09;17.23;;;12.13;;
57800;SDS011;43627;42.728;23.256;2023-10-13T01:25:45;20.98;;;11.05;;
57800;SDS011;43627;42.728;23.256;2023-10-13T01:28:12;15.52;;;10.50;;
57800;SDS011;43627;42.728;23.256;2023-10-13T01:30:43;15.35;;;12.43;;
57800;SDS011;43627;42.728;23.256;2023-10-13T01:33:17;16.33;;;12.48;;
57800;SDS011;43627;42.728;23.256;2023-10-13T01:35:54;16.30;;;13.00;;
57800;SDS011;43627;42.728;23.256;2023-10-13T01:38:25;18.45;;;12.80;;
57800;SDS011;43627;42.728;23.256;2023-10-13T01:40:54;15.45;;;11.23;;
57800;SDS011;43627;42.728;23.256;2023-10-13T01:43:23;15.70;;;11.43;;
57800;SDS011;43627;42.728;23.256;2023-10-13T01:45:51;12.80;;;10.80;;
57800;SDS011;43627;42.728;23.256;2023-10-13T01:48:18;12.60;;;10.98;;
57800;SDS011;43627;42.728;23.256;2023-10-13T01:50:48;19.10;;;11.43;;
57800;SDS011;43627;42.728;23.256;2023-10-13T01:53:22;15.70;;;10.73;;
57800;SDS011;43627;42.728;23.256;2023-10-13T01:55:51;17.85;;;11.90;;
57800;SDS011;43627;42.728;23.256;2023-10-13T01:58:18;12.85;;;11.52;;
57800;SDS011;43627;42.728;23.256;2023-10-13T02:00:49;14.38;;;10.80;;
57800;SDS011;43627;42.728;23.256;2023-10-13T02:03:16;14.68;;;12.23;;
57800;SDS011;43627;42.728;23.256;2023-10-13T02:05:44;14.45;;;11.35;;
57800;SDS011;43627;42.728;23.256;2023-10-13T02:08:16;13.05;;;10.77;;
57800;SDS011;43627;42.728;23.256;2023-10-13T02:10:49;13.38;;;10.55;;
57800;SDS011;43627;42.728;23.256;2023-10-13T02:13:20;15.75;;;11.57;;
57800;SDS011;43627;42.728;23.256;2023-10-13T02:15:49;17.90;;;10.95;;
57800;SDS011;43627;42.728;23.256;2023-10-13T02:18:23;20.83;;;16.02;;
57800;SDS011;43627;42.728;23.256;2023-10-13T02:20:55;20.55;;;12.57;;
57800;SDS011;43627;42.728;23.256;2023-10-13T02:23:30;17.30;;;14.32;;
57800;SDS011;43627;42.728;23.256;2023-10-13T02:26:01;18.92;;;12.48;;
57800;SDS011;43627;42.728;23.256;2023-10-13T02:31:02;18.60;;;12.50;;
57800;SDS011;43627;42.728;23.256;2023-10-13T02:33:30;14.30;;;11.02;;
57800;SDS011;43627;42.728;23.256;2023-10-13T02:36:03;13.25;;;10.48;;
57800;SDS011;43627;42.728;23.256;2023-10-13T02:38:34;17.08;;;11.15;;
57800;SDS011;43627;42.728;23.256;2023-10-13T02:41:13;18.08;;;10.68;;
57800;SDS011;43627;42.728;23.256;2023-10-13T02:43:53;20.20;;;10.68;;
57800;SDS011;43627;42.728;23.256;2023-10-13T02:46:21;14.15;;;10.27;;
57800;SDS011;43627;42.728;23.256;2023-10-13T02:48:49;17.27;;;10.65;;
57800;SDS011;43627;42.728;23.256;2023-10-13T02:51:20;15.50;;;10.32;;
57800;SDS011;43627;42.728;23.256;2023-10-13T02:53:52;15.25;;;10.50;;
57800;SDS011;43627;42.728;23.256;2023-10-13T02:56:19;19.73;;;11.57;;
57800;SDS011;43627;42.728;23.256;2023-10-13T02:58:50;17.75;;;12.10;;
57800;SDS011;43627;42.728;23.256;2023-10-13T03:01:23;18.08;;;10.73;;
57800;SDS011;43627;42.728;23.256;2023-10-13T03:04:04;16.48;;;11.20;;
57800;SDS011;43627;42.728;23.256;2023-10-13T03:06:35;17.25;;;12.45;;
57800;SDS011;43627;42.728;23.256;2023-10-13T03:09:07;23.25;;;12.60;;
57800;SDS011;43627;42.728;23.256;2023-10-13T03:11:45;15.98;;;10.75;;
57800;SDS011;43627;42.728;23.256;2023-10-13T03:14:23;17.92;;;10.45;;
57800;SDS011;43627;42.728;23.256;2023-10-13T03:16:55;23.83;;;11.75;;
57800;SDS011;43627;42.728;23.256;2023-10-13T03:19:33;18.38;;;12.45;;
57800;SDS011;43627;42.728;23.256;2023-10-13T03:22:02;17.75;;;13.98;;
57800;SDS011;43627;42.728;23.256;2023-10-13T03:24:37;23.75;;;12.50;;
57800;SDS011;43627;42.728;23.256;2023-10-13T03:27:18;19.35;;;12.65;;
57800;SDS011;43627;42.728;23.256;2023-10-13T03:30:06;16.90;;;12.80;;
57800;SDS011;43627;42.728;23.256;2023-10-13T03:32:42;21.15;;;11.48;;
57800;SDS011;43627;42.728;23.256;2023-10-13T03:35:20;19.20;;;12.30;;
57800;SDS011;43627;42.728;23.256;2023-10-13T03:37:54;17.05;;;12.18;;
57800;SDS011;43627;42.728;23.256;2023-10-13T03:40:21;18.23;;;11.80;;
57800;SDS011;43627;42.728;23.256;2023-10-13T03:42:49;22.17;;;12.77;;
57800;SDS011;43627;42.728;23.256;2023-10-13T03:45:37;20.75;;;12.98;;
57800;SDS011;43627;42.728;23.256;2023-10-13T03:48:10;20.63;;;11.63;;
57800;SDS011;43627;42.728;23.256;2023-10-13T03:50:59;19.92;;;11.23;;
57800;SDS011;43627;42.728;23.256;2023-10-13T03:56:00;28.85;;;12.68;;
57800;SDS011;43627;42.728;23.256;2023-10-13T03:58:39;25.85;;;14.48;;
57800;SDS011;43627;42.728;23.256;2023-10-13T04:01:09;39.97;;;15.27;;
57800;SDS011;43627;42.728;23.256;2023-10-13T04:03:36;26.70;;;14.35;;
57800;SDS011;43627;42.728;23.256;2023-10-13T04:06:05;22.58;;;13.05;;
57800;SDS011;43627;42.728;23.256;2023-10-13T04:08:34;31.30;;;15.07;;
57800;SDS011;43627;42.728;23.256;2023-10-13T04:11:34;25.85;;;15.35;;
57800;SDS011;43627;42.728;23.256;2023-10-13T04:14:34;23.98;;;12.55;;
57800;SDS011;43627;42.728;23.256;2023-10-13T04:17:24;24.10;;;13.05;;
57800;SDS011;43627;42.728;23.256;2023-10-13T04:19:59;25.00;;;12.95;;
57800;SDS011;43627;42.728;23.256;2023-10-13T04:22:37;29.27;;;12.55;;
57800;SDS011;43627;42.728;23.256;2023-10-13T04:25:23;28.73;;;12.88;;
57800;SDS011;43627;42.728;23.256;2023-10-13T04:28:18;27.75;;;12.25;;
57800;SDS011;43627;42.728;23.256;2023-10-13T04:31:02;20.23;;;12.65;;
57800;SDS011;43627;42.728;23.256;2023-10-13T04:33:51;24.38;;;13.60;;
57800;SDS011;43627;42.728;23.256;2023-10-13T04:36:22;22.08;;;12.93;;
57800;SDS011;43627;42.728;23.256;2023-10-13T04:38:53;21.45;;;11.93;;
57800;SDS011;43627;42.728;23.256;2023-10-13T04:41:31;22.08;;;12.15;;
57800;SDS011;43627;42.728;23.256;2023-10-13T04:46:59;24.38;;;11.95;;
57800;SDS011;43627;42.728;23.256;2023-10-13T04:49:29;27.27;;;16.13;;
57800;SDS011;43627;42.728;23.256;2023-10-13T04:52:09;28.92;;;14.80;;
57800;SDS011;43627;42.728;23.256;2023-10-13T04:54:44;24.63;;;13.18;;
57800;SDS011;43627;42.728;23.256;2023-10-13T04:57:16;23.27;;;11.10;;
57800;SDS011;43627;42.728;23.256;2023-10-13T04:59:50;16.73;;;12.18;;
57800;SDS011;43627;42.728;23.256;2023-10-13T05:02:45;16.98;;;11.00;;
57800;SDS011;43627;42.728;23.256;2023-10-13T05:05:45;19.83;;;11.02;;
57800;SDS011;43627;42.728;23.256;2023-10-13T05:08:32;18.55;;;10.52;;
57800;SDS011;43627;42.728;23.256;2023-10-13T05:11:18;26.88;;;10.40;;
57800;SDS011;43627;42.728;23.256;2023-10-13T05:14:03;18.90;;;10.00;;
57800;SDS011;43627;42.728;23.256;2023-10-13T05:16:48;17.63;;;9.65;;
57800;SDS011;43627;42.728;23.256;2023-10-13T05:19:34;17.15;;;11.00;;
57800;SDS011;43627;42.728;23.256;2023-10-13T05:22:19;17.50;;;11.10;;
57800;SDS011;43627;42.728;23.256;2023-10-13T05:25:05;16.83;;;12.05;;
57800;SDS011;43627;42.728;23.256;2023-10-13T05:27:51;16.67;;;10.68;;
57800;SDS011;43627;42.728;23.256;2023-10-13T05:30:58;14.77;;;10.20;;
57800;SDS011;43627;42.728;23.256;2023-10-13T05:33:44;11.68;;;8.90;;
57800;SDS011;43627;42.728;23.256;2023-10-13T05:36:30;20.73;;;9.13;;
57800;SDS011;43627;42.728;23.256;2023-10-13T05:39:16;15.20;;;10.25;;
57800;SDS011;43627;42.728;23.256;2023-10-13T05:42:01;17.95;;;10.20;;
57800;SDS011;43627;42.728;23.256;2023-10-13T05:44:47;14.57;;;10.07;;
57800;SDS011;43627;42.728;23.256;2023-10-13T05:47:33;23.17;;;12.90;;
57800;SDS011;43627;42.728;23.256;2023-10-13T05:50:12;15.40;;;10.40;;
57800;SDS011;43627;42.728;23.256;2023-10-13T05:52:46;16.20;;;10.43;;
57800;SDS011;43627;42.728;23.256;2023-10-13T05:55:25;19.80;;;13.02;;
57800;SDS011;43627;42.728;23.256;2023-10-13T05:58:15;15.90;;;9.95;;
57800;SDS011;43627;42.728;23.256;2023-10-13T06:01:00;18.45;;;11.45;;
57800;SDS011;43627;42.728;23.256;2023-10-13T06:03:46;19.77;;;11.43;;
57800;SDS011;43627;42.728;23.256;2023-10-13T06:06:31;12.35;;;9.82;;
57800;SDS011;43627;42.728;23.256;2023-10-13T06:09:17;15.10;;;11.93;;
57800;SDS011;43627;42.728;23.256;2023-10-13T06:12:03;15.93;;;10.73;;
57800;SDS011;43627;42.728;23.256;2023-10-13T06:14:48;19.58;;;10.68;;
57800;SDS011;43627;42.728;23.256;2023-10-13T06:17:34;15.52;;;11.75;;
57800;SDS011;43627;42.728;23.256;2023-10-13T06:20:19;21.95;;;11.50;;
57800;SDS011;43627;42.728;23.256;2023-10-13T06:23:05;19.58;;;10.52;;
57800;SDS011;43627;42.728;23.256;2023-10-13T06:25:51;14.20;;;10.73;;
57800;SDS011;43627;42.728;23.256;2023-10-13T06:28:38;18.27;;;10.13;;
57800;SDS011;43627;42.728;23.256;2023-10-13T06:31:09;17.80;;;11.33;;
57800;SDS011;43627;42.728;23.256;2023-10-13T06:33:58;21.33;;;11.75;;
57800;SDS011;43627;42.728;23.256;2023-10-13T06:36:25;19.40;;;10.95;;
57800;SDS011;43627;42.728;23.256;2023-10-13T06:38:53;29.30;;;13.52;;
57800;SDS011;43627;42.728;23.256;2023-10-13T06:41:42;14.55;;;11.43;;
57800;SDS011;43627;42.728;23.256;2023-10-13T06:44:10;22.10;;;11.70;;
57800;SDS011;43627;42.728;23.256;2023-10-13T06:46:42;24.52;;;12.35;;
57800;SDS011;43627;42.728;23.256;2023-10-13T06:49:10;17.05;;;9.70;;
57800;SDS011;43627;42.728;23.256;2023-10-13T06:51:41;14.25;;;10.57;;
57800;SDS011;43627;42.728;23.256;2023-10-13T06:54:09;18.67;;;11.77;;
57800;SDS011;43627;42.728;23.256;2023-10-13T06:56:39;17.13;;;10.43;;
57800;SDS011;43627;42.728;23.256;2023-10-13T06:59:06;14.40;;;10.38;;
57800;SDS011;43627;42.728;23.256;2023-10-13T07:01:34;18.10;;;11.00;;
57800;SDS011;43627;42.728;23.256;2023-10-13T07:04:09;17.83;;;12.75;;
57800;SDS011;43627;42.728;23.256;2023-10-13T07:06:43;23.80;;;13.15;;
57800;SDS011;43627;42.728;23.256;2023-10-13T07:09:17;16.63;;;12.05;;
57800;SDS011;43627;42.728;23.256;2023-10-13T07:12:04;26.30;;;15.10;;
57800;SDS011;43627;42.728;23.256;2023-10-13T07:14:47;18.92;;;13.80;;
57800;SDS011;43627;42.728;23.256;2023-10-13T07:17:47;24.08;;;12.95;;
57800;SDS011;43627;42.728;23.256;2023-10-13T07:20:14;16.67;;;14.45;;
57800;SDS011;43627;42.728;23.256;2023-10-13T07:22:42;21.50;;;13.45;;
57800;SDS011;43627;42.728;23.256;2023-10-13T07:25:34;27.17;;;14.45;;
57800;SDS011;43627;42.728;23.256;2023-10-13T07:28:04;25.50;;;13.52;;
57800;SDS011;43627;42.728;23.256;2023-10-13T07:30:35;18.08;;;11.73;;
57800;SDS011;43627;42.728;23.256;2023-10-13T07:33:18;24.30;;;14.68;;
57800;SDS011;43627;42.728;23.256;2023-10-13T07:35:58;24.48;;;13.35;;
57800;SDS011;43627;42.728;23.256;2023-10-13T07:38:54;23.73;;;13.73;;
57800;SDS011;43627;42.728;23.256;2023-10-13T07:41:50;24.08;;;13.85;;
57800;SDS011;43627;42.728;23.256;2023-10-13T07:44:31;21.05;;;13.82;;
57800;SDS011;43627;42.728;23.256;2023-10-13T07:47:03;25.98;;;14.30;;
57800;SDS011;43627;42.728;23.256;2023-10-13T07:49:36;26.88;;;14.02;;
57800;SDS011;43627;42.728;23.256;2023-10-13T07:52:05;21.58;;;14.73;;
57800;SDS011;43627;42.728;23.256;2023-10-13T07:54:57;21.00;;;13.32;;
57800;SDS011;43627;42.728;23.256;2023-10-13T07:57:40;37.95;;;14.32;;
57800;SDS011;43627;42.728;23.256;2023-10-13T08:00:36;32.85;;;14.15;;
57800;SDS011;43627;42.728;23.256;2023-10-13T08:03:04;30.85;;;15.27;;
57800;SDS011;43627;42.728;23.256;2023-10-13T08:05:45;23.63;;;13.57;;
57800;SDS011;43627;42.728;23.256;2023-10-13T08:08:47;22.83;;;14.20;;
57800;SDS011;43627;42.728;23.256;2023-10-13T08:11:20;17.55;;;12.88;;
57800;SDS011;43627;42.728;23.256;2023-10-13T08:13:59;23.15;;;14.60;;
57800;SDS011;43627;42.728;23.256;2023-10-13T08:16:58;25.95;;;12.30;;
57800;SDS011;43627;42.728;23.256;2023-10-13T08:19:30;24.40;;;14.70;;
57800;SDS011;43627;42.728;23.256;2023-10-13T08:22:12;28.02;;;13.75;;
57800;SDS011;43627;42.728;23.256;2023-10-13T08:24:46;27.38;;;15.88;;
57800;SDS011;43627;42.728;23.256;2023-10-13T08:27:15;24.17;;;14.13;;
57800;SDS011;43627;42.728;23.256;2023-10-13T08:30:00;23.80;;;14.68;;
57800;SDS011;43627;42.728;23.256;2023-10-13T08:32:29;29.05;;;15.77;;
57800;SDS011;43627;42.728;23.256;2023-10-13T08:34:57;28.25;;;16.38;;
57800;SDS011;43627;42.728;23.256;2023-10-13T08:37:31;20.23;;;14.10;;
57800;SDS011;43627;42.728;23.256;2023-10-13T08:40:01;21.52;;;15.07;;
57800;SDS011;43627;42.728;23.256;2023-10-13T08:42:35;33.22;;;16.95;;
57800;SDS011;43627;42.728;23.256;2023-10-13T08:45:29;31.38;;;15.52;;
57800;SDS011;43627;42.728;23.256;2023-10-13T08:48:03;32.20;;;16.90;;
57800;SDS011;43627;42.728;23.256;2023-10-13T08:50:49;27.95;;;18.48;;
57800;SDS011;43627;42.728;23.256;2023-10-13T08:53:19;29.65;;;17.95;;
57800;SDS011;43627;42.728;23.256;2023-10-13T08:55:54;30.33;;;15.05;;
57800;SDS011;43627;42.728;23.256;2023-10-13T08:58:37;24.15;;;16.08;;
57800;SDS011;43627;42.728;23.256;2023-10-13T09:01:23;31.48;;;15.57;;
57800;SDS011;43627;42.728;23.256;2023-10-13T09:04:08;25.05;;;14.07;;
57800;SDS011;43627;42.728;23.256;2023-10-13T09:07:00;24.30;;;14.52;;
57800;SDS011;43627;42.728;23.256;2023-10-13T09:09:34;20.80;;;15.00;;
57800;SDS011;43627;42.728;23.256;2023-10-13T09:12:14;19.33;;;13.30;;
57800;SDS011;43627;42.728;23.256;2023-10-13T09:17:47;18.50;;;12.20;;
57800;SDS011;43627;42.728;23.256;2023-10-13T09:20:39;18.65;;;12.80;;
57800;SDS011;43627;42.728;23.256;2023-10-13T09:23:13;25.10;;;12.95;;
57800;SDS011;43627;42.728;23.256;2023-10-13T09:25:52;18.88;;;13.85;;
57800;SDS011;43627;42.728;23.256;2023-10-13T09:28:35;18.33;;;14.57;;
57800;SDS011;43627;42.728;23.256;2023-10-13T09:31:06;22.25;;;13.57;;
57800;SDS011;43627;42.728;23.256;2023-10-13T09:33:37;19.17;;;12.88;;
57800;SDS011;43627;42.728;23.256;2023-10-13T09:36:16;18.63;;;13.18;;
57800;SDS011;43627;42.728;23.256;2023-10-13T09:38:50;19.48;;;11.00;;
57800;SDS011;43627;42.728;23.256;2023-10-13T09:41:39;12.60;;;10.73;;
57800;SDS011;43627;42.728;23.256;2023-10-13T09:44:07;14.63;;;11.00;;
57800;SDS011;43627;42.728;23.256;2023-10-13T09:46:37;14.55;;;11.00;;
57800;SDS011;43627;42.728;23.256;2023-10-13T09:49:11;15.20;;;10.88;;
57800;SDS011;43627;42.728;23.256;2023-10-13T09:51:49;13.32;;;11.68;;
57800;SDS011;43627;42.728;23.256;2023-10-13T09:54:25;15.40;;;10.23;;
57800;SDS011;43627;42.728;23.256;2023-10-13T09:57:10;20.55;;;11.23;;
57800;SDS011;43627;42.728;23.256;2023-10-13T10:02:19;14.05;;;10.95;;
57800;SDS011;43627;42.728;23.256;2023-10-13T10:04:55;12.13;;;10.55;;
57800;SDS011;43627;42.728;23.256;2023-10-13T10:07:55;15.93;;;12.48;;
57800;SDS011;43627;42.728;23.256;2023-10-13T10:10:27;14.35;;;11.25;;
57800;SDS011;43627;42.728;23.256;2023-10-13T10:13:15;13.55;;;12.15;;
57800;SDS011;43627;42.728;23.256;2023-10-13T10:16:09;13.02;;;9.68;;
57800;SDS011;43627;42.728;23.256;2023-10-13T10:18:41;11.93;;;10.15;;
57800;SDS011;43627;42.728;23.256;2023-10-13T10:21:09;12.13;;;10.98;;
57800;SDS011;43627;42.728;23.256;2023-10-13T10:23:37;12.18;;;9.45;;
57800;SDS011;43627;42.728;23.256;2023-10-13T10:26:14;12.48;;;10.02;;
57800;SDS011;43627;42.728;23.256;2023-10-13T10:28:46;16.67;;;11.00;;
57800;SDS011;43627;42.728;23.256;2023-10-13T10:31:14;11.05;;;9.95;;
57800;SDS011;43627;42.728;23.256;2023-10-13T10:33:46;13.60;;;10.38;;
57800;SDS011;43627;42.728;23.256;2023-10-13T10:36:28;14.85;;;9.07;;
57800;SDS011;43627;42.728;23.256;2023-10-13T10:38:58;11.77;;;9.85;;
57800;SDS011;43627;42.728;23.256;2023-10-13T10:41:31;14.85;;;11.70;;
57800;SDS011;43627;42.728;23.256;2023-10-13T10:44:22;11.88;;;10.50;;
57800;SDS011;43627;42.728;23.256;2023-10-13T10:47:09;12.50;;;11.30;;
57800;SDS011;43627;42.728;23.256;2023-10-13T10:49:38;15.07;;;13.55;;
57800;SDS011;43627;42.728;23.256;2023-10-13T10:52:05;13.70;;;10.45;;
57800;SDS011;43627;42.728;23.256;2023-10-13T10:54:45;11.65;;;9.77;;
57800;SDS011;43627;42.728;23.256;2023-10-13T10:57:19;14.70;;;9.75;;
57800;SDS011;43627;42.728;23.256;2023-10-13T10:59:59;10.50;;;9.40;;
57800;SDS011;43627;42.728;23.256;2023-10-13T11:02:38;9.77;;;8.95;;
57800;SDS011;43627;42.728;23.256;2023-10-13T11:05:05;13.15;;;11.93;;
57800;SDS011;43627;42.728;23.256;2023-10-13T11:07:33;14.82;;;9.65;;
57800;SDS011;43627;42.728;23.256;2023-10-13T11:10:09;10.50;;;9.40;;
57800;SDS011;43627;42.728;23.256;2023-10-13T11:12:56;11.73;;;9.30;;
57800;SDS011;43627;42.728;23.256;2023-10-13T11:15:43;9.77;;;8.82;;
57800;SDS011;43627;42.728;23.256;2023-10-13T11:18:15;12.90;;;8.98;;
57800;SDS011;43627;42.728;23.256;2023-10-13T11:20:55;7.60;;;6.90;;
57800;SDS011;43627;42.728;23.256;2023-10-13T11:23:23;9.65;;;8.02;;
57800;SDS011;43627;42.728;23.256;2023-10-13T11:25:59;11.73;;;7.00;;
57800;SDS011;43627;42.728;23.256;2023-10-13T11:28:27;9.82;;;8.10;;
57800;SDS011;43627;42.728;23.256;2023-10-13T11:30:55;8.10;;;7.40;;
57800;SDS011;43627;42.728;23.256;2023-10-13T11:33:26;7.18;;;6.28;;
57800;SDS011;43627;42.728;23.256;2023-10-13T11:35:57;11.05;;;8.20;;
57800;SDS011;43627;42.728;23.256;2023-10-13T11:38:41;8.35;;;7.55;;
57800;SDS011;43627;42.728;23.256;2023-10-13T11:41:14;9.45;;;7.47;;
57800;SDS011;43627;42.728;23.256;2023-10-13T11:43:46;7.18;;;5.85;;
57800;SDS011;43627;42.728;23.256;2023-10-13T11:46:20;6.82;;;6.13;;
57800;SDS011;43627;42.728;23.256;2023-10-13T11:49:08;11.18;;;7.03;;
57800;SDS011;43627;42.728;23.256;2023-10-13T11:51:40;7.05;;;6.28;;
57800;SDS011;43627;42.728;23.256;2023-10-13T11:54:14;8.23;;;7.50;;
57800;SDS011;43627;42.728;23.256;2023-10-13T11:56:45;9.25;;;8.50;;
57800;SDS011;43627;42.728;23.256;2023-10-13T11:59:14;10.55;;;9.75;;
57800;SDS011;43627;42.728;23.256;2023-10-13T12:01:45;8.07;;;6.80;;
57800;SDS011;43627;42.728;23.256;2023-10-13T12:04:32;7.55;;;6.78;;
57800;SDS011;43627;42.728;23.256;2023-10-13T12:07:19;8.30;;;7.53;;
57800;SDS011;43627;42.728;23.256;2023-10-13T12:09:50;8.40;;;7.60;;
57800;SDS011;43627;42.728;23.256;2023-10-13T12:12:26;8.18;;;7.00;;
57800;SDS011;43627;42.728;23.256;2023-10-13T12:15:06;7.93;;;7.32;;
57800;SDS011;43627;42.728;23.256;2023-10-13T12:17:51;9.45;;;8.18;;
57800;SDS011;43627;42.728;23.256;2023-10-13T12:20:19;9.07;;;6.65;;
57800;SDS011;43627;42.728;23.256;2023-10-13T12:22:59;10.23;;;7.72;;
57800;SDS011;43627;42.728;23.256;2023-10-13T12:25:39;11.88;;;7.65;;
57800;SDS011;43627;42.728;23.256;2023-10-13T12:28:22;9.88;;;7.30;;
57800;SDS011;43627;42.728;23.256;2023-10-13T12:30:50;7.97;;;7.18;;
57800;SDS011;43627;42.728;23.256;2023-10-13T12:33:22;9.45;;;8.75;;
57800;SDS011;43627;42.728;23.256;2023-10-13T12:35:57;8.23;;;7.05;;
57800;SDS011;43627;42.728;23.256;2023-10-13T12:38:53;8.40;;;6.40;;
57800;SDS011;43627;42.728;23.256;2023-10-13T12:41:46;10.48;;;7.18;;
57800;SDS011;43627;42.728;23.256;2023-10-13T12:44:32;14.60;;;6.60;;
57800;SDS011;43627;42.728;23.256;2023-10-13T12:47:17;8.05;;;7.25;;
57800;SDS011;43627;42.728;23.256;2023-10-13T12:50:03;8.50;;;7.70;;
57800;SDS011;43627;42.728;23.256;2023-10-13T12:52:40;8.32;;;7.63;;
57800;SDS011;43627;42.728;23.256;2023-10-13T12:55:12;8.25;;;7.53;;
57800;SDS011;43627;42.728;23.256;2023-10-13T12:57:41;9.07;;;8.10;;
57800;SDS011;43627;42.728;23.256;2023-10-13T13:00:11;9.63;;;8.73;;
57800;SDS011;43627;42.728;23.256;2023-10-13T13:02:51;8.88;;;8.00;;
57800;SDS011;43627;42.728;23.256;2023-10-13T13:05:23;8.38;;;7.57;;
57800;SDS011;43627;42.728;23.256;2023-10-13T13:07:55;8.45;;;7.18;;
57800;SDS011;43627;42.728;23.256;2023-10-13T13:10:24;7.72;;;6.93;;
57800;SDS011;43627;42.728;23.256;2023-10-13T13:13:04;7.80;;;7.10;;
57800;SDS011;43627;42.728;23.256;2023-10-13T13:15:33;8.02;;;6.68;;
57800;SDS011;43627;42.728;23.256;2023-10-13T13:18:01;9.82;;;8.10;;
57800;SDS011;43627;42.728;23.256;2023-10-13T13:20:37;12.02;;;6.90;;
57800;SDS011;43627;42.728;23.256;2023-10-13T13:23:23;9.25;;;7.03;;
57800;SDS011;43627;42.728;23.256;2023-10-13T13:25:53;9.63;;;7.28;;
57800;SDS011;43627;42.728;23.256;2023-10-13T13:28:20;8.50;;;7.18;;
57800;SDS011;43627;42.728;23.256;2023-10-13T13:30:50;9.27;;;6.72;;
57800;SDS011;43627;42.728;23.256;2023-10-13T13:33:21;7.80;;;7.10;;
57800;SDS011;43627;42.728;23.256;2023-10-13T13:35:55;12.13;;;6.28;;
57800;SDS011;43627;42.728;23.256;2023-10-13T13:38:26;7.43;;;6.72;;
57800;SDS011;43627;42.728;23.256;2023-10-13T13:40:59;8.88;;;6.57;;
57800;SDS011;43627;42.728;23.256;2023-10-13T13:43:29;8.35;;;6.30;;
57800;SDS011;43627;42.728;23.256;2023-10-13T13:46:07;7.38;;;6.65;;
57800;SDS011;43627;42.728;23.256;2023-10-13T13:48:36;7.18;;;6.47;;
57800;SDS011;43627;42.728;23.256;2023-10-13T13:51:05;9.85;;;8.13;;
57800;SDS011;43627;42.728;23.256;2023-10-13T13:53:40;11.23;;;7.50;;
57800;SDS011;43627;42.728;23.256;2023-10-13T13:56:12;8.52;;;6.82;;
57800;SDS011;43627;42.728;23.256;2023-10-13T13:58:52;9.10;;;8.20;;
57800;SDS011;43627;42.728;23.256;2023-10-13T14:01:20;11.05;;;10.10;;
57800;SDS011;43627;42.728;23.256;2023-10-13T14:03:52;9.00;;;8.07;;
57800;SDS011;43627;42.728;23.256;2023-10-13T14:06:24;8.50;;;7.60;;
57800;SDS011;43627;42.728;23.256;2023-10-13T14:08:54;11.77;;;7.53;;
57800;SDS011;43627;42.728;23.256;2023-10-13T14:11:23;8.82;;;8.02;;
57800;SDS011;43627;42.728;23.256;2023-10-13T14:14:07;8.52;;;7.78;;
57800;SDS011;43627;42.728;23.256;2023-10-13T14:16:53;10.25;;;9.10;;
57800;SDS011;43627;42.728;23.256;2023-10-13T14:19:29;9.60;;;8.57;;
57800;SDS011;43627;42.728;23.256;2023-10-13T14:21:56;8.07;;;7.30;;
57800;SDS011;43627;42.728;23.256;2023-10-13T14:24:24;7.68;;;6.93;;
57800;SDS011;43627;42.728;23.256;2023-10-13T14:26:58;8.02;;;7.18;;
57800;SDS011;43627;42.728;23.256;2023-10-13T14:29:40;8.52;;;7.47;;
57800;SDS011;43627;42.728;23.256;2023-10-13T14:32:11;8.88;;;7.80;;
57800;SDS011;43627;42.728;23.256;2023-10-13T14:34:43;8.75;;;7.93;;
57800;SDS011;43627;42.728;23.256;2023-10-13T14:37:12;9.75;;;8.48;;
57800;SDS011;43627;42.728;23.256;2023-10-13T14:39:40;10.77;;;9.80;;
57800;SDS011;43627;42.728;23.256;2023-10-13T14:42:07;7.97;;;6.95;;
57800;SDS011;43627;42.728;23.256;2023-10-13T14:44:35;12.70;;;11.55;;
57800;SDS011;43627;42.728;23.256;2023-10-13T14:47:03;15.10;;;14.00;;
57800;SDS011;43627;42.728;23.256;2023-10-13T14:49:36;8.80;;;8.05;;
57800;SDS011;43627;42.728;23.256;2023-10-13T14:52:03;9.80;;;8.95;;
57800;SDS011;43627;42.728;23.256;2023-10-13T14:54:30;11.55;;;10.48;;
57800;SDS011;43627;42.728;23.256;2023-10-13T14:57:01;15.40;;;13.95;;
57800;SDS011;43627;42.728;23.256;2023-10-13T14:59:29;19.67;;;18.23;;
57800;SDS011;43627;42.728;23.256;2023-10-13T15:02:00;18.85;;;17.15;;
57800;SDS011;43627;42.728;23.256;2023-10-13T15:04:31;11.35;;;10.43;;
57800;SDS011;43627;42.728;23.256;2023-10-13T15:07:01;12.20;;;10.85;;
57800;SDS011;43627;42.728;23.256;2023-10-13T15:09:28;10.25;;;8.25;;
57800;SDS011;43627;42.728;23.256;2023-10-13T15:11:56;18.63;;;11.30;;
57800;SDS011;43627;42.728;23.256;2023-10-13T15:14:23;12.05;;;9.75;;
57800;SDS011;43627;42.728;23.256;2023-10-13T15:16:56;9.45;;;8.02;;
57800;SDS011;43627;42.728;23.256;2023-10-13T15:19:27;19.67;;;9.18;;
57800;SDS011;43627;42.728;23.256;2023-10-13T15:21:56;10.55;;;8.93;;